Time;durP1;ratioP1;P1;durP2;ratioP2;P2;SDS_P1;SDS_P2;PMS_P1;PMS_P2;Temp;Humidity;BMP_temperature;BMP_pressure;BME280_temperature;BME280_humidity;BME280_pressure;Samples;Min_cycle;Max_cycle;Signal;HPM_P1;HPM_P2
2022/04/17 00:01:32;;;;;;;0.10;0.10;;;8.80;56.30;;;;;;5012830;28;20037;-63
2022/04/17 00:03:57;;;;;;;0.10;0.10;;;8.80;56.50;;;;;;5010704;28;20488;-64
2022/04/17 00:06:23;;;;;;;0.10;0.10;;;8.80;56.50;;;;;;5008885;28;20076;-64
2022/04/17 00:08:49;;;;;;;0.10;0.10;;;8.70;56.50;;;;;;5011189;28;20076;-64
2022/04/17 00:11:15;;;;;;;0.10;0.10;;;8.70;57.00;;;;;;5008199;28;20033;-64
2022/04/17 00:13:42;;;;;;;1.10;0.55;;;8.70;56.80;;;;;;5012325;28;20524;-63
2022/04/17 00:16:08;;;;;;;0.10;0.10;;;8.70;57.00;;;;;;5012935;28;20057;-64
2022/04/17 00:18:34;;;;;;;0.10;0.10;;;8.70;57.50;;;;;;5011715;28;20034;-65
2022/04/17 00:20:59;;;;;;;0.10;0.10;;;8.60;57.20;;;;;;5011148;28;20116;-63
2022/04/17 00:23:25;;;;;;;0.10;0.10;;;8.70;57.60;;;;;;5006394;28;20439;-65
2022/04/17 00:25:50;;;;;;;0.10;0.10;;;8.60;57.40;;;;;;5012653;28;20026;-65
2022/04/17 00:28:16;;;;;;;0.10;0.10;;;8.50;57.60;;;;;;4994299;28;20030;-64
2022/04/17 00:30:42;;;;;;;0.10;0.10;;;8.50;58.20;;;;;;5012387;28;20034;-64
2022/04/17 00:33:07;;;;;;;0.08;0.08;;;8.40;57.90;;;;;;5011248;28;20076;-64
2022/04/17 00:35:34;;;;;;;0.10;0.10;;;8.40;58.20;;;;;;5012504;28;20109;-64
2022/04/17 00:38:02;;;;;;;0.10;0.10;;;8.40;58.40;;;;;;5009995;28;20018;-64
2022/04/17 00:40:27;;;;;;;0.32;0.32;;;8.40;58.60;;;;;;5005550;28;20068;-63
2022/04/17 00:42:53;;;;;;;0.10;0.10;;;8.40;58.70;;;;;;5012208;28;20025;-65
2022/04/17 00:45:19;;;;;;;0.10;0.10;;;8.30;58.80;;;;;;5011447;28;20022;-64
2022/04/17 00:47:44;;;;;;;0.10;0.10;;;8.30;59.10;;;;;;5011124;28;20042;-63
2022/04/17 00:50:11;;;;;;;0.10;0.10;;;8.20;59.30;;;;;;5010798;28;20100;-64
2022/04/17 00:52:38;;;;;;;0.20;0.20;;;8.30;59.70;;;;;;5009681;28;20108;-64
2022/04/17 00:55:05;;;;;;;0.10;0.10;;;8.20;59.90;;;;;;5011111;28;20068;-65
2022/04/17 00:57:31;;;;;;;0.10;0.10;;;8.10;60.00;;;;;;5001901;28;20061;-65
2022/04/17 00:59:58;;;;;;;0.10;0.10;;;8.00;60.30;;;;;;4992256;28;20030;-66
2022/04/17 01:02:23;;;;;;;0.10;0.10;;;8.00;60.70;;;;;;5001307;28;20489;-65
2022/04/17 01:04:49;;;;;;;0.57;0.57;;;8.00;61.10;;;;;;5007475;28;20034;-64
2022/04/17 01:07:15;;;;;;;0.10;0.10;;;8.00;61.10;;;;;;5005646;28;20392;-63
2022/04/17 01:09:43;;;;;;;0.10;0.10;;;7.90;61.40;;;;;;5003649;28;20093;-64
2022/04/17 01:12:10;;;;;;;0.10;0.10;;;7.90;61.50;;;;;;5010237;28;20045;-63
2022/04/17 01:14:40;;;;;;;0.10;0.10;;;7.90;61.70;;;;;;5001227;28;20029;-64
2022/04/17 01:17:07;;;;;;;0.10;0.10;;;7.80;61.80;;;;;;5009833;28;20025;-64
2022/04/17 01:19:37;;;;;;;0.10;0.10;;;7.90;62.50;;;;;;5012008;28;20056;-62
2022/04/17 01:22:06;;;;;;;0.10;0.10;;;7.80;62.50;;;;;;5011458;28;20033;-64
2022/04/17 01:27:19;;;;;;;0.10;0.10;;;7.80;63.10;;;;;;5011855;28;20033;-63
2022/04/17 01:29:46;;;;;;;0.10;0.10;;;7.70;63.10;;;;;;5011313;28;20482;-65
2022/04/17 01:32:13;;;;;;;0.10;0.10;;;7.70;63.50;;;;;;4995742;28;20048;-65
2022/04/17 01:34:39;;;;;;;0.10;0.10;;;7.40;63.70;;;;;;5004116;28;20028;-64
2022/04/17 01:37:05;;;;;;;0.10;0.10;;;7.70;64.90;;;;;;5002325;28;20034;-64
2022/04/17 01:39:31;;;;;;;0.10;0.10;;;7.70;65.70;;;;;;4998233;28;20026;-64
2022/04/17 01:41:58;;;;;;;0.10;0.10;;;7.60;66.10;;;;;;5009949;28;20424;-64
2022/04/17 01:44:25;;;;;;;0.10;0.10;;;7.60;66.00;;;;;;5011314;28;20235;-66
2022/04/17 01:46:52;;;;;;;0.10;0.10;;;7.60;66.60;;;;;;5010606;28;20024;-66
2022/04/17 01:49:18;;;;;;;0.10;0.10;;;7.60;66.50;;;;;;5009445;28;20101;-67
2022/04/17 01:51:46;;;;;;;0.10;0.10;;;7.60;66.70;;;;;;5009575;28;20133;-65
2022/04/17 01:54:16;;;;;;;0.10;0.10;;;7.50;67.00;;;;;;5010038;28;20048;-67
2022/04/17 01:56:43;;;;;;;0.10;0.10;;;7.60;67.50;;;;;;5011042;28;20071;-67
2022/04/17 01:59:11;;;;;;;0.10;0.10;;;7.50;68.00;;;;;;5010292;28;20105;-67
2022/04/17 02:01:38;;;;;;;0.10;0.10;;;7.40;68.40;;;;;;5001949;28;20045;-66
2022/04/17 02:04:05;;;;;;;0.10;0.10;;;7.40;69.00;;;;;;5008490;28;20486;-66
2022/04/17 02:06:31;;;;;;;0.10;0.10;;;7.40;70.30;;;;;;5008016;28;20034;-67
2022/04/17 02:08:57;;;;;;;0.10;0.10;;;7.30;71.40;;;;;;4999905;28;20454;-65
2022/04/17 02:11:25;;;;;;;0.10;0.10;;;7.40;71.30;;;;;;5010092;28;20053;-67
2022/04/17 02:13:51;;;;;;;0.10;0.10;;;7.30;71.80;;;;;;4997494;28;20034;-66
2022/04/17 02:16:17;;;;;;;0.10;0.10;;;7.20;72.40;;;;;;5010774;28;20524;-66
2022/04/17 02:18:49;;;;;;;0.10;0.10;;;7.20;73.50;;;;;;5009883;28;20124;-65
2022/04/17 02:21:16;;;;;;;0.10;0.10;;;7.20;74.30;;;;;;5009319;28;20033;-66
2022/04/17 02:23:43;;;;;;;0.10;0.10;;;7.10;74.30;;;;;;5009524;28;20018;-66
2022/04/17 02:26:10;;;;;;;0.77;0.75;;;7.10;75.30;;;;;;5007375;28;20029;-65
2022/04/17 02:28:40;;;;;;;0.10;0.10;;;7.10;75.70;;;;;;5009206;28;20022;-65
2022/04/17 02:31:07;;;;;;;2.30;2.10;;;7.10;76.40;;;;;;5009220;28;20026;-65
2022/04/17 02:33:34;;;;;;;0.10;0.10;;;7.10;77.40;;;;;;5008033;28;20449;-66
2022/04/17 02:35:59;;;;;;;0.10;0.10;;;7.00;78.60;;;;;;5010363;28;20097;-64
2022/04/17 02:38:26;;;;;;;0.10;0.10;;;6.90;79.80;;;;;;5009295;28;20106;-66
2022/04/17 02:40:53;;;;;;;0.10;0.10;;;7.00;81.30;;;;;;5004549;28;20083;-66
2022/04/17 02:43:19;;;;;;;0.10;0.10;;;7.00;82.70;;;;;;5010120;28;20030;-64
2022/04/17 02:45:45;;;;;;;0.10;0.10;;;6.90;82.80;;;;;;5010419;28;20485;-67
2022/04/17 02:48:11;;;;;;;0.10;0.10;;;6.90;83.50;;;;;;5009121;28;20064;-66
2022/04/17 02:50:36;;;;;;;0.10;0.10;;;6.80;84.90;;;;;;5009868;28;20018;-66
2022/04/17 02:53:02;;;;;;;0.10;0.10;;;6.80;86.40;;;;;;5010180;28;20390;-65
2022/04/17 02:55:28;;;;;;;0.10;0.10;;;6.80;87.90;;;;;;5008254;28;20477;-65
2022/04/17 02:57:55;;;;;;;0.10;0.10;;;6.80;89.40;;;;;;5004674;28;20030;-67
2022/04/17 03:00:23;;;;;;;0.10;0.10;;;6.80;90.30;;;;;;5010104;28;20040;-66
2022/04/17 03:05:36;;;;;;;0.57;0.57;;;6.80;91.70;;;;;;5012466;28;20052;-65
2022/04/17 03:08:07;;;;;;;0.10;0.10;;;6.80;92.30;;;;;;5013996;28;20022;-64
2022/04/17 03:10:33;;;;;;;0.32;0.32;;;7.10;93.30;;;;;;5012233;28;20073;-64
2022/04/17 03:12:59;;;;;;;0.73;0.68;;;6.70;93.60;;;;;;5012688;28;20037;-64
2022/04/17 03:15:25;;;;;;;0.10;0.10;;;6.70;93.80;;;;;;5008954;28;20034;-63
2022/04/17 03:17:51;;;;;;;0.10;0.10;;;6.60;92.70;;;;;;4994430;28;20125;-63
2022/04/17 03:20:17;;;;;;;0.10;0.10;;;6.60;93.70;;;;;;4993999;28;20110;-64
2022/04/17 03:22:42;;;;;;;0.10;0.10;;;6.60;93.80;;;;;;5003507;28;20033;-65
2022/04/17 03:25:09;;;;;;;0.82;0.82;;;6.60;94.40;;;;;;5012995;28;20034;-64
2022/04/17 03:27:35;;;;;;;0.77;0.77;;;6.60;94.80;;;;;;5013345;28;20053;-63
2022/04/17 03:30:01;;;;;;;0.25;0.25;;;6.50;95.20;;;;;;5007481;28;20030;-64
2022/04/17 03:32:26;;;;;;;0.10;0.10;;;6.40;95.20;;;;;;5006046;28;20501;-64
2022/04/17 03:34:52;;;;;;;0.10;0.10;;;6.40;95.60;;;;;;5012745;28;20040;-65
2022/04/17 03:37:17;;;;;;;0.30;0.30;;;6.40;96.00;;;;;;5013667;28;20057;-64
2022/04/17 03:39:48;;;;;;;0.10;0.10;;;6.40;96.60;;;;;;5012895;28;20026;-63
2022/04/17 03:42:15;;;;;;;0.10;0.10;;;6.40;97.30;;;;;;5012107;28;20026;-64
2022/04/17 03:44:41;;;;;;;0.10;0.10;;;6.40;97.90;;;;;;5013426;28;20018;-64
2022/04/17 03:47:07;;;;;;;0.10;0.10;;;6.40;98.30;;;;;;5006773;28;20030;-64
2022/04/17 03:49:33;;;;;;;0.40;0.40;;;6.40;98.30;;;;;;5002984;28;20109;-64
2022/04/17 03:52:00;;;;;;;0.10;0.10;;;6.40;98.20;;;;;;5012700;28;20042;-64
2022/04/17 03:54:26;;;;;;;0.10;0.10;;;6.30;99.30;;;;;;5012787;28;20032;-64
2022/04/17 03:56:52;;;;;;;0.10;0.10;;;6.30;99.90;;;;;;5012028;28;20113;-64
2022/04/17 03:59:18;;;;;;;0.10;0.10;;;6.30;99.90;;;;;;5012297;28;20030;-64
2022/04/17 04:01:46;;;;;;;0.10;0.10;;;6.20;99.60;;;;;;5012672;28;20085;-64
2022/04/17 04:04:12;;;;;;;0.10;0.10;;;6.20;99.70;;;;;;5011644;28;20544;-64
2022/04/17 04:06:37;;;;;;;0.10;0.10;;;6.20;99.90;;;;;;5011660;28;20110;-64
2022/04/17 04:09:03;;;;;;;0.10;0.10;;;6.10;99.90;;;;;;5011953;28;20032;-65
2022/04/17 04:11:29;;;;;;;0.10;0.10;;;6.10;99.90;;;;;;5010699;28;20685;-65
2022/04/17 04:13:55;;;;;;;0.10;0.10;;;6.20;99.90;;;;;;5012370;28;20444;-64
2022/04/17 04:16:20;;;;;;;0.20;0.20;;;6.20;99.90;;;;;;5012310;28;20030;-64
2022/04/17 04:18:46;;;;;;;0.35;0.35;;;6.20;99.90;;;;;;5012890;28;20025;-64
2022/04/17 04:21:12;;;;;;;0.10;0.10;;;6.20;99.90;;;;;;5011336;28;20847;-65
2022/04/17 04:23:38;;;;;;;0.10;0.10;;;6.10;99.90;;;;;;5011756;28;20180;-65
2022/04/17 04:26:04;;;;;;;0.10;0.10;;;6.20;99.90;;;;;;5010308;28;20024;-66
2022/04/17 04:28:33;;;;;;;0.10;0.10;;;6.10;99.90;;;;;;5009567;28;20397;-65
2022/04/17 04:31:09;;;;;;;0.10;0.10;;;6.10;99.90;;;;;;5012277;28;20125;-66
2022/04/17 04:33:37;;;;;;;2.35;2.20;;;6.10;99.90;;;;;;5011578;28;20022;-65
2022/04/17 04:36:04;;;;;;;0.10;0.10;;;6.10;99.90;;;;;;5012373;28;20021;-63
2022/04/17 04:38:30;;;;;;;0.10;0.10;;;6.10;99.90;;;;;;5006738;28;20031;-63
2022/04/17 04:40:56;;;;;;;1.05;1.05;;;6.10;99.90;;;;;;5011141;28;20025;-64
2022/04/17 04:43:22;;;;;;;0.45;0.45;;;6.10;99.90;;;;;;5010672;28;20102;-64
2022/04/17 04:51:28;;;;;;;0.10;0.10;;;6.10;99.90;;;;;;5025142;22;20029;-63
2022/04/17 04:53:55;;;;;;;0.10;0.10;;;6.10;99.90;;;;;;4999196;28;20042;-63
2022/04/17 04:56:21;;;;;;;0.10;0.10;;;6.00;99.90;;;;;;5008181;28;20497;-63
2022/04/17 04:58:47;;;;;;;0.10;0.10;;;6.00;99.90;;;;;;5008168;28;20041;-63
2022/04/17 05:01:13;;;;;;;0.20;0.20;;;5.90;99.90;;;;;;4992824;28;20038;-63
2022/04/17 05:03:39;;;;;;;0.10;0.10;;;5.90;99.90;;;;;;4994199;28;20096;-64
2022/04/17 05:06:05;;;;;;;0.22;0.22;;;5.90;99.90;;;;;;4997301;28;20022;-62
2022/04/17 05:08:31;;;;;;;0.10;0.10;;;5.90;99.90;;;;;;5011022;28;20027;-62
2022/04/17 05:10:57;;;;;;;0.08;0.08;;;6.00;99.90;;;;;;5011002;28;20032;-64
2022/04/17 05:13:22;;;;;;;0.10;0.10;;;6.00;99.90;;;;;;5010372;28;20112;-64
2022/04/17 05:15:48;;;;;;;0.10;0.10;;;6.00;99.90;;;;;;5011355;28;20021;-64
2022/04/17 05:18:14;;;;;;;0.10;0.10;;;6.00;99.90;;;;;;5010953;28;20057;-62
2022/04/17 05:20:40;;;;;;;0.10;0.10;;;5.90;99.90;;;;;;5010309;28;20058;-63
2022/04/17 05:23:26;;;;;;;0.10;0.10;;;5.90;99.90;;;;;;5011109;28;20140;-63
2022/04/17 05:25:57;;;;;;;0.10;0.10;;;5.90;99.90;;;;;;5010354;28;20050;-62
2022/04/17 05:28:23;;;;;;;0.17;0.17;;;5.90;99.90;;;;;;5009620;28;20029;-64
2022/04/17 05:30:49;;;;;;;0.15;0.15;;;6.00;99.90;;;;;;5010642;28;20018;-63
2022/04/17 05:33:20;;;;;;;0.10;0.10;;;6.00;99.90;;;;;;4993475;28;20480;-63
2022/04/17 05:35:46;;;;;;;0.10;0.10;;;6.00;99.90;;;;;;5010614;28;20069;-64
2022/04/17 05:38:12;;;;;;;0.10;0.10;;;6.00;99.90;;;;;;5010350;28;20054;-63
2022/04/17 05:40:46;;;;;;;0.10;0.10;;;6.70;99.90;;;;;;5010741;28;20048;-64
2022/04/17 05:43:12;;;;;;;0.70;0.63;;;6.00;99.90;;;;;;5008592;28;20030;-62
2022/04/17 05:45:38;;;;;;;0.10;0.10;;;6.00;99.90;;;;;;5010202;28;20033;-63
2022/04/17 05:48:06;;;;;;;0.10;0.10;;;6.00;99.90;;;;;;5010822;28;20049;-63
2022/04/17 05:50:33;;;;;;;0.10;0.10;;;6.00;99.90;;;;;;5010709;28;20014;-63
2022/04/17 05:52:58;;;;;;;0.10;0.10;;;6.20;99.90;;;;;;5006978;28;20033;-63
2022/04/17 05:55:24;;;;;;;0.10;0.10;;;6.20;99.90;;;;;;5010822;28;20520;-65
2022/04/17 05:57:50;;;;;;;0.57;0.57;;;6.20;99.90;;;;;;5009445;28;20022;-63
2022/04/17 06:00:16;;;;;;;0.10;0.10;;;6.30;99.90;;;;;;5009182;28;20084;-63
2022/04/17 06:02:44;;;;;;;0.10;0.10;;;6.40;99.90;;;;;;5010855;28;20029;-63
2022/04/17 06:05:11;;;;;;;0.10;0.10;;;6.50;99.90;;;;;;5010317;28;20055;-63
2022/04/17 06:07:36;;;;;;;0.10;0.10;;;6.50;99.90;;;;;;5010875;28;20025;-63
2022/04/17 06:10:04;;;;;;;0.10;0.10;;;6.60;99.90;;;;;;5010228;28;20398;-63
2022/04/17 06:12:29;;;;;;;0.10;0.10;;;6.70;99.90;;;;;;5009409;28;20033;-64
2022/04/17 06:14:55;;;;;;;0.40;0.40;;;6.70;99.90;;;;;;5010257;28;20022;-63
2022/04/17 06:17:21;;;;;;;0.10;0.10;;;6.80;99.90;;;;;;5009876;28;20050;-63
2022/04/17 06:19:46;;;;;;;1.13;1.13;;;6.90;99.90;;;;;;5009289;28;20660;-64
2022/04/17 06:22:12;;;;;;;0.10;0.10;;;6.90;99.90;;;;;;5010059;28;20026;-62
2022/04/17 06:24:38;;;;;;;0.10;0.10;;;7.00;99.90;;;;;;5010282;28;20072;-62
2022/04/17 06:27:04;;;;;;;0.10;0.10;;;7.10;99.90;;;;;;5009760;28;20029;-62
2022/04/17 06:29:30;;;;;;;0.25;0.25;;;7.10;99.90;;;;;;5008409;28;20022;-64
2022/04/17 06:31:56;;;;;;;0.10;0.10;;;7.20;99.70;;;;;;5009946;28;20168;-64
2022/04/17 06:34:21;;;;;;;0.10;0.10;;;7.30;99.30;;;;;;5010334;28;20466;-63
2022/04/17 06:36:47;;;;;;;0.10;0.10;;;7.00;98.60;;;;;;5003636;28;20438;-64
2022/04/17 06:39:14;;;;;;;0.10;0.10;;;7.30;98.70;;;;;;5007150;28;20551;-63
2022/04/17 06:41:40;;;;;;;0.10;0.10;;;7.40;98.40;;;;;;5008475;28;20128;-65
2022/04/17 06:44:05;;;;;;;0.10;0.10;;;7.50;98.00;;;;;;5006661;28;20034;-64
2022/04/17 06:46:32;;;;;;;0.10;0.10;;;7.60;97.10;;;;;;5007435;28;20030;-63
2022/04/17 06:48:58;;;;;;;0.10;0.10;;;7.70;97.10;;;;;;5001297;28;20098;-62
2022/04/17 06:51:25;;;;;;;0.10;0.10;;;7.70;96.80;;;;;;5008632;28;20112;-64
2022/04/17 06:53:52;;;;;;;0.10;0.10;;;7.80;96.00;;;;;;4999012;28;20143;-62
2022/04/17 06:56:21;;;;;;;0.68;0.68;;;7.90;96.40;;;;;;5003363;28;20025;-63
2022/04/17 06:58:48;;;;;;;0.10;0.10;;;8.00;95.10;;;;;;5006542;28;20033;-64
2022/04/17 07:01:14;;;;;;;0.10;0.10;;;8.10;95.60;;;;;;5005864;28;20478;-65
2022/04/17 07:03:43;;;;;;;0.10;0.10;;;8.20;93.80;;;;;;5007224;28;20069;-62
2022/04/17 07:06:09;;;;;;;0.10;0.10;;;8.30;93.70;;;;;;5007823;28;20034;-63
2022/04/17 07:08:35;;;;;;;0.10;0.10;;;8.50;93.20;;;;;;5007974;28;20026;-63
2022/04/17 07:11:01;;;;;;;0.10;0.10;;;8.50;93.10;;;;;;5005957;28;20438;-63
2022/04/17 07:13:26;;;;;;;0.10;0.10;;;8.60;92.40;;;;;;5007451;28;20018;-65
2022/04/17 07:15:52;;;;;;;0.10;0.10;;;8.70;91.70;;;;;;5006264;28;20106;-63
2022/04/17 07:18:18;;;;;;;0.10;0.10;;;8.70;91.10;;;;;;5008013;28;20089;-64
2022/04/17 07:20:44;;;;;;;0.10;0.10;;;8.80;91.70;;;;;;5007883;28;20021;-63
2022/04/17 07:23:10;;;;;;;0.10;0.10;;;8.90;91.50;;;;;;5007372;28;20436;-64
2022/04/17 07:25:36;;;;;;;0.10;0.10;;;8.90;90.70;;;;;;5007023;28;20026;-63
2022/04/17 07:28:03;;;;;;;0.10;0.10;;;9.00;90.20;;;;;;5002044;28;20029;-65
2022/04/17 07:30:33;;;;;;;0.10;0.10;;;9.10;85.60;;;;;;5002365;28;20049;-64
2022/04/17 07:33:00;;;;;;;0.10;0.10;;;9.30;83.90;;;;;;5008505;28;20030;-64
2022/04/17 07:35:27;;;;;;;0.10;0.10;;;9.40;83.40;;;;;;5007681;28;20115;-63
2022/04/17 07:37:54;;;;;;;0.10;0.10;;;9.50;81.90;;;;;;5006017;28;20481;-64
2022/04/17 07:40:25;;;;;;;0.10;0.10;;;9.70;80.20;;;;;;5005589;28;20543;-63
2022/04/17 07:42:51;;;;;;;0.10;0.10;;;9.80;79.70;;;;;;4990446;28;20029;-64
2022/04/17 07:45:17;;;;;;;0.10;0.10;;;9.90;80.30;;;;;;5006891;28;20117;-63
2022/04/17 07:47:44;;;;;;;0.10;0.10;;;9.90;79.50;;;;;;5001178;28;20022;-64
2022/04/17 07:50:12;;;;;;;0.10;0.10;;;10.00;79.50;;;;;;5011174;28;20026;-63
2022/04/17 07:52:39;;;;;;;0.10;0.10;;;10.00;74.30;;;;;;5010540;28;20057;-64
2022/04/17 07:55:06;;;;;;;0.10;0.10;;;10.10;72.80;;;;;;5009344;28;20026;-63
2022/04/17 08:00:19;;;;;;;0.10;0.10;;;10.30;67.60;;;;;;5008393;28;20052;-63
2022/04/17 08:02:50;;;;;;;0.10;0.10;;;10.50;66.60;;;;;;4994005;28;20041;-64
2022/04/17 08:05:16;;;;;;;0.10;0.10;;;10.50;66.00;;;;;;4992877;28;20034;-65
2022/04/17 08:07:42;;;;;;;0.10;0.10;;;10.60;65.50;;;;;;5007223;28;20094;-64
2022/04/17 08:10:08;;;;;;;0.10;0.10;;;10.60;65.80;;;;;;5012015;28;20034;-65
2022/04/17 08:12:34;;;;;;;0.10;0.10;;;10.70;64.70;;;;;;5004385;28;20053;-63
2022/04/17 08:15:00;;;;;;;0.10;0.10;;;10.80;64.50;;;;;;5010050;28;20117;-65
2022/04/17 08:17:26;;;;;;;0.10;0.10;;;10.90;63.90;;;;;;5011624;28;20069;-64
2022/04/17 08:19:52;;;;;;;0.10;0.10;;;10.90;63.40;;;;;;5010010;28;20061;-65
2022/04/17 08:22:17;;;;;;;0.10;0.10;;;11.00;62.50;;;;;;5007517;28;20058;-65
2022/04/17 08:24:43;;;;;;;0.10;0.10;;;11.00;60.90;;;;;;4992433;28;20049;-64
2022/04/17 08:27:10;;;;;;;0.10;0.10;;;11.10;61.20;;;;;;5009650;28;20074;-64
2022/04/17 08:29:36;;;;;;;0.10;0.10;;;11.20;62.20;;;;;;5008034;28;20062;-63
2022/04/17 08:32:02;;;;;;;0.10;0.10;;;11.20;61.10;;;;;;5011265;28;20056;-64
2022/04/17 08:34:27;;;;;;;0.10;0.10;;;11.20;61.00;;;;;;4992485;28;20034;-64
2022/04/17 08:36:54;;;;;;;0.10;0.10;;;11.20;63.00;;;;;;5011716;28;20582;-65
2022/04/17 08:39:19;;;;;;;0.10;0.10;;;11.20;60.90;;;;;;5008291;28;20135;-64
2022/04/17 08:41:47;;;;;;;0.10;0.10;;;11.40;62.90;;;;;;5008185;28;20493;-64
2022/04/17 08:44:13;;;;;;;0.10;0.10;;;11.30;62.90;;;;;;5010030;28;20048;-63
2022/04/17 08:46:41;;;;;;;0.40;0.40;;;11.40;63.00;;;;;;4992351;28;20641;-65
2022/04/17 08:49:09;;;;;;;0.10;0.10;;;11.50;63.60;;;;;;5010290;28;20026;-64
2022/04/17 08:51:36;;;;;;;0.10;0.10;;;11.60;63.50;;;;;;5008627;28;20083;-65
2022/04/17 08:54:03;;;;;;;0.10;0.10;;;11.60;63.20;;;;;;5011409;28;20069;-63
2022/04/17 08:56:29;;;;;;;0.10;0.10;;;11.30;62.30;;;;;;5009502;28;20046;-65
2022/04/17 08:58:56;;;;;;;0.10;0.10;;;11.70;62.70;;;;;;5011101;28;20029;-64
2022/04/17 09:01:21;;;;;;;0.10;0.10;;;11.80;62.40;;;;;;5007606;28;20081;-64
2022/04/17 09:03:47;;;;;;;0.10;0.10;;;12.00;62.20;;;;;;5009367;28;20479;-64
2022/04/17 09:06:22;;;;;;;0.10;0.10;;;12.00;61.30;;;;;;5010379;28;20106;-64
2022/04/17 09:09:05;;;;;;;0.10;0.10;;;11.90;62.00;;;;;;5011574;28;20069;-66
2022/04/17 09:11:33;;;;;;;0.10;0.10;;;12.30;61.80;;;;;;4987668;28;20037;-64
2022/04/17 09:14:00;;;;;;;0.10;0.10;;;12.40;60.80;;;;;;5003516;28;20489;-63
2022/04/17 09:16:27;;;;;;;0.10;0.10;;;12.50;60.70;;;;;;5009211;28;20030;-64
2022/04/17 09:18:53;;;;;;;0.10;0.10;;;12.50;59.10;;;;;;5009650;28;20034;-65
2022/04/17 09:21:33;;;;;;;0.10;0.10;;;12.40;58.90;;;;;;5008595;28;20041;-65
2022/04/17 09:24:25;;;;;;;0.10;0.10;;;12.50;58.10;;;;;;5008157;28;20113;-63
2022/04/17 09:26:56;;;;;;;0.10;0.10;;;12.60;55.30;;;;;;5004516;28;20038;-64
2022/04/17 09:29:29;;;;;;;0.10;0.10;;;12.70;54.30;;;;;;5007821;28;20018;-66
2022/04/17 09:32:03;;;;;;;0.10;0.10;;;12.60;53.90;;;;;;5009212;28;20045;-66
2022/04/17 09:34:50;;;;;;;0.10;0.10;;;12.60;53.50;;;;;;5008042;28;20068;-66
2022/04/17 09:37:18;;;;;;;0.10;0.10;;;12.60;53.30;;;;;;5010036;28;20034;-65
2022/04/17 09:39:45;;;;;;;0.10;0.10;;;12.70;54.00;;;;;;5008877;28;20030;-65
2022/04/17 09:42:11;;;;;;;0.10;0.10;;;12.80;53.90;;;;;;5007216;28;20026;-67
2022/04/17 09:44:47;;;;;;;0.10;0.10;;;13.00;54.10;;;;;;5008967;28;20028;-66
2022/04/17 09:47:24;;;;;;;0.10;0.10;;;13.00;53.20;;;;;;5006248;28;20029;-67
2022/04/17 09:50:07;;;;;;;0.10;0.10;;;13.10;52.60;;;;;;5010311;28;20046;-66
2022/04/17 09:52:46;;;;;;;0.10;0.10;;;13.10;52.70;;;;;;5007293;28;20041;-65
2022/04/17 09:55:13;;;;;;;0.00;0.00;;;13.30;52.60;;;;;;5006618;28;20037;-66
2022/04/17 09:57:45;;;;;;;0.10;0.10;;;13.30;52.70;;;;;;5008769;28;20105;-65
2022/04/17 10:00:20;;;;;;;0.10;0.10;;;13.50;52.60;;;;;;5004451;28;20485;-66
2022/04/17 10:02:47;;;;;;;0.10;0.10;;;13.40;51.80;;;;;;5010265;28;20049;-65
2022/04/17 10:05:15;;;;;;;0.10;0.10;;;13.40;51.80;;;;;;5008017;28;20033;-68
2022/04/17 10:07:48;;;;;;;0.10;0.10;;;13.40;51.00;;;;;;5007615;28;20029;-64
2022/04/17 10:10:15;;;;;;;0.10;0.10;;;13.40;51.80;;;;;;5017261;28;20112;-66
2022/04/17 10:12:43;;;;;;;0.10;0.10;;;13.50;52.30;;;;;;4999363;28;20030;-65
2022/04/17 10:15:11;;;;;;;0.05;0.05;;;13.70;51.70;;;;;;5015116;28;20021;-66
2022/04/17 10:17:38;;;;;;;0.10;0.10;;;13.50;51.40;;;;;;5012536;28;20071;-70
2022/04/17 10:20:14;;;;;;;0.10;0.10;;;13.40;50.90;;;;;;4990780;28;20061;-66
2022/04/17 10:22:43;;;;;;;0.10;0.10;;;13.40;51.30;;;;;;5008986;28;20030;-68
2022/04/17 10:25:10;;;;;;;0.10;0.10;;;13.50;51.90;;;;;;5007108;28;20033;-66
2022/04/17 10:27:35;;;;;;;0.10;0.10;;;13.70;51.40;;;;;;5009453;28;20026;-66
2022/04/17 10:30:05;;;;;;;0.10;0.10;;;13.80;50.70;;;;;;5005620;28;20434;-65
2022/04/17 10:32:56;;;;;;;0.10;0.10;;;13.90;51.10;;;;;;5005778;28;20485;-66
2022/04/17 10:35:45;;;;;;;0.10;0.10;;;13.90;51.00;;;;;;5008622;28;20045;-66
2022/04/17 10:38:10;;;;;;;0.10;0.10;;;13.90;50.40;;;;;;5006493;28;20029;-66
2022/04/17 10:40:37;;;;;;;0.10;0.10;;;14.10;50.60;;;;;;5008178;28;20116;-66
2022/04/17 10:43:04;;;;;;;0.10;0.10;;;14.30;49.90;;;;;;5006081;28;20095;-66
2022/04/17 10:45:31;;;;;;;0.10;0.10;;;14.30;48.90;;;;;;5007504;28;20084;-66
2022/04/17 10:48:05;;;;;;;0.00;0.00;;;14.40;48.80;;;;;;5009004;28;20030;-66
2022/04/17 10:50:43;;;;;;;0.10;0.10;;;14.40;47.70;;;;;;5009325;28;20026;-65
2022/04/17 10:53:29;;;;;;;0.10;0.10;;;14.40;48.30;;;;;;5005131;28;20061;-67
2022/04/17 10:56:05;;;;;;;0.10;0.10;;;14.50;48.10;;;;;;5006673;28;20029;-66
2022/04/17 10:58:40;;;;;;;0.10;0.10;;;14.60;48.20;;;;;;5007452;28;20034;-67
2022/04/17 11:01:06;;;;;;;0.10;0.10;;;14.70;47.50;;;;;;5021180;22;20065;-66
2022/04/17 11:03:35;;;;;;;0.00;0.00;;;14.70;46.50;;;;;;5004229;28;20026;-64
2022/04/17 11:06:33;;;;;;;0.10;0.10;;;14.60;46.30;;;;;;5008866;28;20052;-64
2022/04/17 11:09:12;;;;;;;0.10;0.10;;;14.60;45.40;;;;;;4989670;28;20519;-64
2022/04/17 11:11:40;;;;;;;0.10;0.10;;;14.50;45.80;;;;;;5002575;28;20100;-64
2022/04/17 11:14:16;;;;;;;0.20;0.20;;;14.50;45.50;;;;;;5006613;28;20052;-64
2022/04/17 11:16:52;;;;;;;0.10;0.10;;;14.40;45.30;;;;;;5005899;28;20049;-64
2022/04/17 11:19:24;;;;;;;0.10;0.10;;;14.50;45.30;;;;;;5000548;28;20018;-65
2022/04/17 11:21:51;;;;;;;0.10;0.10;;;14.60;45.10;;;;;;5001566;28;20025;-64
2022/04/17 11:24:19;;;;;;;0.10;0.10;;;14.70;45.70;;;;;;5005686;28;20063;-64
2022/04/17 11:26:54;;;;;;;0.10;0.10;;;14.60;44.50;;;;;;5009427;28;20053;-64
2022/04/17 11:29:48;;;;;;;0.10;0.10;;;14.70;44.50;;;;;;5010695;28;20029;-65
2022/04/17 11:32:17;;;;;;;0.15;0.15;;;14.80;45.00;;;;;;5008439;28;20049;-63
2022/04/17 11:34:44;;;;;;;0.00;0.00;;;14.80;44.70;;;;;;5007914;28;20099;-65
2022/04/17 11:37:10;;;;;;;0.10;0.10;;;14.90;44.40;;;;;;5001053;28;20064;-65
2022/04/17 11:39:38;;;;;;;0.00;0.00;;;14.90;43.90;;;;;;5003243;28;20049;-64
2022/04/17 11:42:07;;;;;;;0.10;0.10;;;15.10;44.40;;;;;;5008832;28;20091;-65
2022/04/17 11:44:33;;;;;;;0.10;0.10;;;15.10;44.70;;;;;;5011212;28;20061;-65
2022/04/17 11:46:59;;;;;;;0.10;0.10;;;15.10;45.10;;;;;;5007753;28;20115;-66
2022/04/17 11:49:24;;;;;;;0.10;0.10;;;15.10;45.00;;;;;;5010148;28;20509;-66
2022/04/17 11:51:50;;;;;;;0.10;0.10;;;15.10;45.30;;;;;;5006856;28;20062;-65
2022/04/17 11:54:34;;;;;;;0.10;0.10;;;15.20;44.40;;;;;;5011986;28;20105;-66
2022/04/17 11:57:00;;;;;;;0.10;0.10;;;15.40;44.30;;;;;;5011193;28;20025;-65
2022/04/17 11:59:26;;;;;;;0.10;0.10;;;15.50;43.50;;;;;;5011662;28;20477;-64
2022/04/17 12:02:16;;;;;;;0.10;0.10;;;15.30;42.00;;;;;;5003726;28;20033;-65
2022/04/17 12:04:49;;;;;;;0.10;0.10;;;15.20;43.40;;;;;;5010899;28;20044;-64
2022/04/17 12:07:19;;;;;;;0.10;0.10;;;15.40;43.60;;;;;;4985336;28;20497;-65
2022/04/17 12:09:46;;;;;;;0.10;0.10;;;15.30;44.00;;;;;;5011761;28;20044;-66
2022/04/17 12:12:13;;;;;;;0.00;0.00;;;15.30;43.80;;;;;;5008661;28;20096;-65
2022/04/17 12:14:39;;;;;;;0.10;0.10;;;15.40;44.30;;;;;;5011482;28;20026;-64
2022/04/17 12:17:05;;;;;;;0.10;0.10;;;15.60;44.10;;;;;;5008611;28;20034;-65
2022/04/17 12:19:31;;;;;;;0.10;0.10;;;15.80;42.40;;;;;;4992127;28;20029;-64
2022/04/17 12:21:57;;;;;;;0.10;0.10;;;16.00;42.70;;;;;;5009105;28;20393;-65
2022/04/17 12:24:25;;;;;;;0.10;0.10;;;15.80;43.00;;;;;;5001677;28;20072;-65
2022/04/17 12:26:52;;;;;;;0.10;0.10;;;15.80;43.30;;;;;;4999998;28;20025;-66
2022/04/17 12:29:18;;;;;;;0.10;0.10;;;15.70;43.60;;;;;;5005258;28;20021;-64
2022/04/17 12:31:44;;;;;;;0.10;0.10;;;15.50;42.40;;;;;;5009327;28;20484;-65
2022/04/17 12:34:19;;;;;;;0.10;0.10;;;15.50;43.10;;;;;;4992609;28;20046;-65
2022/04/17 12:36:45;;;;;;;0.00;0.00;;;15.80;43.20;;;;;;5000519;28;20057;-65
2022/04/17 12:39:11;;;;;;;0.10;0.10;;;16.10;43.00;;;;;;5003875;28;20561;-65
2022/04/17 12:41:42;;;;;;;0.10;0.10;;;16.60;42.30;;;;;;5007985;28;20026;-63
2022/04/17 12:44:08;;;;;;;0.00;0.00;;;18.00;41.10;;;;;;5010485;28;20022;-64
2022/04/17 12:46:42;;;;;;;0.10;0.10;;;19.50;39.00;;;;;;5000329;28;20026;-64
2022/04/17 12:49:13;;;;;;;0.00;0.00;;;20.50;38.30;;;;;;5005168;28;20349;-65
2022/04/17 12:51:40;;;;;;;0.00;0.00;;;21.70;37.60;;;;;;4999757;28;20049;-66
2022/04/17 12:54:09;;;;;;;0.00;0.00;;;21.50;36.80;;;;;;5004551;28;20125;-65
2022/04/17 12:56:35;;;;;;;0.00;0.00;;;21.30;36.50;;;;;;5008765;28;20370;-64
2022/04/17 12:59:02;;;;;;;0.00;0.00;;;21.70;36.30;;;;;;4999150;28;20030;-67
2022/04/17 13:01:32;;;;;;;0.00;0.00;;;22.60;35.40;;;;;;4998440;28;20048;-66
2022/04/17 13:04:21;;;;;;;0.00;0.00;;;23.50;34.10;;;;;;5006398;28;20022;-65
2022/04/17 13:07:11;;;;;;;0.00;0.00;;;24.50;34.90;;;;;;5001782;28;20014;-64
2022/04/17 13:09:37;;;;;;;0.55;0.55;;;25.10;31.90;;;;;;5002761;28;20140;-65
2022/04/17 13:12:03;;;;;;;0.00;0.00;;;25.50;31.50;;;;;;5006125;28;20231;-64